Latest Weather Observations for Blackwater Airport

IDQ60801

Issued at 9:13 pm EST Saturday 9 May 2026 (issued every 10 minutes, with the page automatically refreshed every 10 minutes)

About weather observations | Map of weather stations | Latest weather observations for QLD | Other Formats
Station Details ID: 035134 Name: BLACKWATER AIRPORT Lat: -23.60 Lon: 148.81 Height: 192.95 m
Data from the previous 72 hours. | See also: Recent months at Blackwater Airport
Date/Time
EST
Temp
°C
App
Temp
°C
Dew
Point
°C
Rel
Hum
%
Delta-T
°C
Wind Press
QNH
hPa
Press
MSL
hPa
Rain since
9am
mm
Dir  Spd
km/h
Gust
km/h
Spd
kts
Gust
kts
09/09:00pm 16.6 12.8 3.7 42 6.0 SE 13 15 7 8 1022.6 1022.0 0.0
09/08:30pm 17.2 13.4 3.8 41 6.3 SSE 13 17 7 9 1022.5 1021.9 0.0
09/08:00pm 17.6 13.3 3.5 39 6.6 SSE 15 17 8 9 1022.4 1021.8 0.0
09/07:30pm 18.4 14.1 3.5 37 7.0 SSE 15 17 8 9 1022.0 1021.4 0.0
09/07:00pm 18.6 15.1 3.3 36 7.2 SE 11 13 6 7 1021.7 1021.1 0.0
09/06:30pm 19.5 15.9 3.2 34 7.7 SE 11 15 6 8 1021.2 1020.6 0.0
09/06:00pm 20.4 16.5 3.2 32 8.2 SE 13 15 7 8 1020.7 1020.1 0.0
09/05:30pm 21.8 17.8 3.0 29 9.0 E 13 19 7 10 1020.4 1019.8 0.0
09/05:00pm 23.8 19.0 2.6 25 10.2 E 17 20 9 11 1019.9 1019.3 0.0
09/04:30pm 25.1 20.3 2.5 23 11.0 E 17 26 9 14 1019.6 1019.0 0.0
09/04:00pm 26.0 21.1 2.0 21 11.6 ENE 17 22 9 12 1019.2 1018.7 0.0
09/03:30pm 26.5 22.3 1.7 20 12.0 ENE 13 22 7 12 1019.0 1018.5 0.0
09/03:00pm 26.7 22.9 1.9 20 12.0 ENE 11 20 6 11 1019.0 1018.5 0.0
09/02:30pm 26.9 23.5 2.1 20 12.1 ESE 9 17 5 9 1019.0 1018.5 0.0
09/02:00pm 26.5 23.6 2.4 21 11.8 ENE 7 13 4 7 1019.3 1018.8 0.0
09/01:30pm 26.2 22.1 2.2 21 11.7 NNE 13 20 7 11 1019.6 1019.0 0.0
09/01:00pm 24.3 20.8 1.2 22 10.9 ESE 9 17 5 9 1020.1 1019.5 0.0
09/12:30pm 24.1 20.3 1.7 23 10.7 SSW 11 15 6 8 1020.6 1020.0 0.0
09/12:00pm 24.1 20.8 2.3 24 10.5 ESE 9 15 5 8 1021.1 1020.5 0.0
09/11:30am 22.5 19.1 2.1 26 9.7 SSE 9 15 5 8 1021.8 1021.2 0.0
09/11:00am 21.6 17.8 1.8 27 9.2 SE 11 17 6 9 1022.2 1021.6 0.0
09/10:30am 21.4 18.1 2.6 29 8.9 E 9 15 5 8 1022.6 1022.0 0.0
09/10:00am 20.6 17.0 2.9 31 8.4 ESE 11 19 6 10 1023.1 1022.5 0.0
09/09:30am 19.2 16.0 3.0 34 7.6 SE 9 19 5 10 1023.2 1022.6 0.0
09/09:00am 18.2 15.0 2.9 36 7.1 ESE 9 19 5 10 1023.1 1022.5 0.0
09/08:30am 17.6 14.7 2.8 37 6.9 E 7 13 4 7 1023.1 1022.5 0.0
09/08:00am 15.9 10.5 2.7 41 6.0 SSE 20 28 11 15 1022.8 1022.2 0.0
09/07:30am 14.9 9.5 2.4 43 5.6 SSE 20 28 11 15 1022.5 1021.9 0.0
09/07:00am 14.1 8.6 2.0 44 5.3 SSE 20 26 11 14 1022.2 1021.6 0.0
09/06:30am 11.1 6.1 1.1 50 4.2 SSW 17 20 9 11 1021.8 1021.2 0.0
09/06:00am 14.0 8.1 1.6 43 5.4 S 22 32 12 17 1021.4 1020.8 0.0
09/05:30am 11.1 6.0 0.8 49 4.3 SSW 17 20 9 11 1021.2 1020.6 0.0
09/05:00am 14.1 8.4 0.7 40 5.7 S 20 24 11 13 1020.9 1020.3 0.0
09/04:30am 14.6 8.1 0.5 38 6.1 S 24 33 13 18 1020.7 1020.1 0.0
09/04:00am 14.8 8.6 -0.1 36 6.3 S 22 32 12 17 1020.7 1020.1 0.0
09/03:30am 12.2 6.9 -0.6 41 5.2 SSW 17 20 9 11 1020.5 1019.9 0.0
09/03:00am 14.8 8.5 -1.3 33 6.6 SSE 22 28 12 15 1020.4 1019.8 0.0
09/02:30am 15.0 8.6 -1.5 32 6.8 SSE 22 32 12 17 1020.5 1019.9 0.0
09/02:00am 14.8 9.4 -1.7 32 6.7 SSE 17 24 9 13 1020.6 1020.0 0.0
09/01:30am 15.0 9.1 -2.0 31 6.9 S 19 26 10 14 1020.9 1020.3 0.0
09/01:00am 12.8 7.2 -3.0 33 6.1 S 17 22 9 12 1021.1 1020.5 0.0
09/12:30am 14.9 9.3 -3.0 29 7.2 S 17 22 9 12 1021.2 1020.6 0.0
09/12:00am 15.4 9.8 -3.0 28 7.4 S 17 26 9 14 1021.4 1020.8 0.0
 
Date/Time
EST
Temp
°C
App
Temp
°C
Dew
Point
°C
Rel
Hum
%
Delta-T
°C
Wind Press
QNH
hPa
Press
MSL
hPa
Rain since
9am
mm
Dir  Spd
km/h
Gust
km/h
Spd
kts
Gust
kts
08/11:30pm 15.0 9.4 -3.3 28 7.3 SSE 17 24 9 13 1021.2 1020.6 0.0
08/11:18pm 15.0 9.4 -2.9 29 7.2 SSE 17 24 9 13 1021.3 1020.7 0.0
08/11:00pm 9.9 4.4 -1.8 44 4.5 SSW 17 20 9 11 1021.4 1020.8 0.0
08/10:30pm 9.9 4.8 -2.1 43 4.6 SSW 15 17 8 9 1021.8 1021.2 0.0
08/10:00pm 10.4 4.9 -1.9 42 4.8 SSW 17 17 9 9 1021.9 1021.3 0.0
08/09:30pm 11.3 6.6 -2.1 39 5.3 SSW 13 17 7 9 1022.0 1021.4 0.0
08/09:00pm 11.0 5.8 -2.4 39 5.2 SSW 15 17 8 9 1022.0 1021.4 0.0
08/08:30pm 12.0 6.1 -2.6 36 5.7 SSW 19 20 10 11 1021.9 1021.3 0.0
08/08:00pm 11.5 6.0 -2.3 38 5.4 SSW 17 20 9 11 1021.9 1021.3 0.0
08/07:30pm 11.6 6.4 -2.9 36 5.6 SSW 15 17 8 9 1021.3 1020.7 0.0
08/07:00pm 15.8 9.8 -3.1 27 7.6 SSW 19 22 10 12 1020.9 1020.3 0.0
08/06:30pm 16.4 11.1 -3.7 25 8.0 SSE 15 17 8 9 1020.7 1020.1 0.0
08/06:00pm 17.6 11.8 -4.3 22 8.7 SSE 17 20 9 11 1020.1 1019.5 0.0
08/05:30pm 19.3 13.1 -4.9 19 9.7 SSE 19 26 10 14 1019.7 1019.1 0.0
08/05:00pm 21.2 14.8 -4.8 17 10.6 S 20 28 11 15 1019.3 1018.8 0.0
08/04:30pm 22.2 15.8 -4.8 16 11.2 S 20 28 11 15 1018.8 1018.3 0.0
08/04:00pm 23.2 16.6 -6.7 13 12.0 S 20 30 11 16 1018.7 1018.1 0.0
08/03:30pm 23.0 16.6 -6.9 13 12.0 S 19 24 10 13 1018.5 1017.9 0.0
08/03:00pm 23.5 17.4 -7.5 12 12.3 S 17 24 9 13 1018.7 1018.1 0.0
08/02:30pm 22.9 17.6 -6.9 13 11.9 S 13 22 7 12 1018.8 1018.3 0.0
08/02:00pm 22.4 16.9 -5.5 15 11.4 S 15 26 8 14 1019.2 1018.7 0.0
08/01:30pm 22.5 17.1 -4.5 16 11.3 S 15 26 8 14 1019.8 1019.2 0.0
08/01:00pm 22.2 17.2 -4.0 17 11.0 S 13 26 7 14 1020.1 1019.5 0.0
08/12:30pm 21.0 15.2 -4.2 18 10.4 SSE 17 32 9 17 1020.5 1019.9 0.0
08/12:00pm 20.5 14.8 -3.9 19 10.1 S 17 30 9 16 1021.2 1020.6 0.0
08/11:30am 19.5 13.2 -4.0 20 9.6 S 20 28 11 15 1021.8 1021.2 0.0
08/11:00am 18.7 11.6 -4.7 20 9.3 S 24 35 13 19 1022.5 1021.9 0.0
08/10:30am 18.9 11.5 -3.9 21 9.3 S 26 35 14 19 1022.8 1022.2 0.0
08/10:00am 17.9 9.4 -3.5 23 8.7 S 32 39 17 21 1023.0 1022.4 0.0
08/09:30am 17.0 9.0 -2.6 26 8.1 S 30 43 16 23 1022.8 1022.2 0.0
08/09:00am 15.8 6.9 -1.7 30 7.2 SSE 35 50 19 27 1022.7 1022.1 0.0
08/08:54am 16.1 7.8 -1.5 30 7.3 SSE 32 50 17 27 1022.7 1022.1 0.0
08/08:30am 15.3 6.7 0.3 36 6.5 S 35 50 19 27 1022.7 1022.1 0.0
08/08:15am 15.0 6.8 0.1 36 6.4 S 33 54 18 29 1022.6 1022.0 0.0
08/08:00am 15.0 7.1 2.2 42 5.7 SSE 33 46 18 25 1022.4 1021.8 0.0
08/07:30am 14.5 6.7 3.0 46 5.2 SSE 33 50 18 27 1022.0 1021.4 0.0
08/07:27am 14.5 6.9 3.0 46 5.2 SSE 32 50 17 27 1022.1 1021.5 0.0
08/07:00am 14.0 7.3 3.8 50 4.7 SSE 28 41 15 22 1021.5 1020.9 0.0
08/06:30am 13.9 7.4 4.5 53 4.4 SSE 28 39 15 21 1021.1 1020.5 0.0
08/06:00am 14.5 7.6 4.5 51 4.7 SSE 30 44 16 24 1020.8 1020.2 0.0
08/05:30am 15.0 7.7 4.7 50 4.9 S 32 46 17 25 1020.4 1019.8 0.0
08/05:00am 15.4 8.9 4.5 48 5.1 SSE 28 37 15 20 1020.0 1019.4 0.0
08/04:30am 15.9 9.3 4.3 46 5.5 SSE 28 39 15 21 1019.4 1018.9 0.0
08/04:00am 16.2 9.6 4.3 45 5.6 SSE 28 39 15 21 1019.0 1018.5 0.0
08/03:30am 16.7 9.7 4.1 43 5.9 SSE 30 41 16 22 1019.1 1018.6 0.0
08/03:00am 16.9 9.9 4.3 43 6.0 SSE 30 39 16 21 1018.9 1018.4 0.0
08/02:30am 17.1 10.2 4.4 43 6.1 S 30 39 16 21 1018.7 1018.1 0.0
08/02:00am 17.5 11.8 4.8 43 6.1 S 24 33 13 18 1018.8 1018.3 0.0
08/01:30am 18.0 12.3 4.9 42 6.3 S 24 33 13 18 1018.8 1018.3 0.0
08/01:00am 18.5 12.1 5.0 41 6.6 SSE 28 39 15 21 1018.7 1018.1 0.0
08/12:30am 18.9 12.6 5.7 42 6.5 SSE 28 41 15 22 1018.9 1018.4 0.0
08/12:00am 19.3 13.1 6.1 42 6.6 SSE 28 43 15 23 1018.7 1018.1 0.0
 
Date/Time
EST
Temp
°C
App
Temp
°C
Dew
Point
°C
Rel
Hum
%
Delta-T
°C
Wind Press
QNH
hPa
Press
MSL
hPa
Rain since
9am
mm
Dir  Spd
km/h
Gust
km/h
Spd
kts
Gust
kts
07/11:30pm 20.0 13.3 5.6 39 7.2 SSE 30 48 16 26 1018.9 1018.4 0.0
07/11:00pm 20.3 15.0 7.0 42 6.8 SSE 24 33 13 18 1018.8 1018.3 0.0
07/10:30pm 20.3 15.1 7.3 43 6.7 SSE 24 33 13 18 1018.9 1018.4 0.0
07/10:00pm 20.5 16.2 7.8 44 6.6 SSE 20 28 11 15 1019.1 1018.6 0.0
07/09:30pm 20.7 16.7 8.4 45 6.5 SSE 19 26 10 14 1019.2 1018.7 0.0
07/09:00pm 21.1 17.4 8.0 43 6.9 S 17 22 9 12 1019.2 1018.7 0.0
07/08:30pm 21.5 17.6 7.3 40 7.4 S 17 26 9 14 1018.9 1018.4 0.0
07/08:00pm 21.6 17.3 7.1 39 7.5 S 19 28 10 15 1018.8 1018.3 0.0
07/07:30pm 21.8 17.9 6.9 38 7.7 S 17 28 9 15 1018.7 1018.1 0.0
07/07:00pm 21.8 18.1 8.0 41 7.3 S 17 22 9 12 1018.3 1017.7 0.0
07/06:30pm 22.1 18.0 7.9 40 7.5 SSW 19 26 10 14 1018.0 1017.4 0.0
07/06:00pm 22.5 17.5 7.9 39 7.7 S 24 32 13 17 1017.5 1016.9 0.0
07/05:30pm 23.5 18.4 7.6 36 8.4 SSW 24 35 13 19 1017.0 1016.4 0.0
07/05:00pm 25.2 21.2 8.2 34 9.2 S 19 24 10 13 1016.5 1015.9 0.0
07/04:30pm 25.5 20.5 8.1 33 9.4 SSW 24 30 13 16 1016.2 1015.6 0.0
07/04:00pm 26.0 21.4 8.0 32 9.7 SSW 22 28 12 15 1016.1 1015.5 0.0
07/03:30pm 26.6 21.8 9.0 33 9.7 SSW 24 32 13 17 1016.0 1015.4 0.0
07/03:00pm 28.7 24.8 9.4 30 10.8 SSW 20 32 11 17 1015.8 1015.2 0.0
07/02:30pm 27.9 24.2 10.1 33 10.1 S 20 33 11 18 1015.8 1015.2 0.0
07/02:00pm 28.1 24.8 9.4 31 10.4 S 17 28 9 15 1015.9 1015.3 0.0
07/01:30pm 27.6 23.7 9.4 32 10.2 SSW 20 30 11 16 1016.0 1015.4 0.0
07/01:00pm 27.0 24.2 11.5 38 8.9 SSE 17 26 9 14 1016.4 1015.8 0.0
07/12:30pm 27.4 24.2 11.8 38 9.0 SSW 20 30 11 16 1016.8 1016.2 0.0
07/12:00pm 26.6 23.6 11.9 40 8.5 SSE 19 24 10 13 1017.1 1016.5 0.0
07/11:30am 25.4 22.0 11.2 41 8.1 S 20 30 11 16 1017.7 1017.1 0.0
07/11:00am 25.4 21.8 11.9 43 7.8 S 22 33 12 18 1018.0 1017.4 0.0
07/10:30am 24.5 20.7 11.1 43 7.6 S 22 32 12 17 1018.5 1017.9 0.0
07/10:00am 24.3 19.4 9.8 40 8.0 S 26 33 14 18 1018.7 1018.1 0.0
07/09:30am 23.3 17.8 9.3 41 7.6 S 28 39 15 21 1018.7 1018.1 0.0
07/09:00am 22.9 17.9 9.7 43 7.2 S 26 37 14 20 1018.6 1018.0 0.0
07/08:30am 21.5 16.5 10.9 51 5.9 S 28 37 15 20 1018.3 1017.7 0.0
07/08:00am 20.8 17.6 13.0 61 4.5 S 22 30 12 16 1017.8 1017.2 0.0
07/07:30am 19.0 16.5 13.4 70 3.2 SSW 19 26 10 14 1017.6 1017.0 0.0
07/07:00am 17.9 15.9 14.0 78 2.2 SSW 17 20 9 11 1017.3 1016.7 0.0
07/06:30am 17.0 16.6 14.1 83 1.7 SSW 9 15 5 8 1017.1 1016.5 0.0
07/06:00am 17.7 17.3 14.0 79 2.1 S 9 13 5 7 1016.6 1016.0 0.0
07/05:30am 17.1 16.0 14.4 84 1.6 SSW 13 15 7 8 1016.5 1015.9 0.0
07/05:00am 16.9 15.6 14.7 87 1.3 SSW 15 15 8 8 1016.3 1015.7 0.0
07/04:30am 16.9 16.0 14.9 88 1.2 SSW 13 15 7 8 1016.2 1015.6 0.0
07/04:00am 16.9 16.0 14.9 88 1.2 SSW 13 13 7 7 1016.2 1015.6 0.0
07/03:30am 17.9 17.2 15.5 86 1.4 S 13 17 7 9 1016.2 1015.6 0.0
07/03:00am 17.9 17.2 15.5 86 1.4 S 13 15 7 8 1016.3 1015.7 0.0
07/02:30am 17.5 16.7 15.0 85 1.5 SSW 13 13 7 7 1016.4 1015.8 0.0
07/02:00am 17.6 17.8 14.7 83 1.7 S 7 13 4 7 1016.6 1016.0 0.0
07/01:30am 19.4 19.7 16.1 81 2.0 E 9 11 5 6 1016.5 1015.9 0.0
07/01:00am 19.9 20.0 16.5 81 2.1 E 11 15 6 8 1016.6 1016.0 0.0
07/12:30am 19.1 18.7 16.3 84 1.7 ENE 13 13 7 7 1016.9 1016.3 0.0
07/12:00am 19.1 19.4 16.0 82 1.9 ENE 9 11 5 6 1017.1 1016.5 0.0
 
Date/Time
EST
Temp
°C
App
Temp
°C
Dew
Point
°C
Rel
Hum
%
Delta-T
°C
Wind Press
QNH
hPa
Press
MSL
hPa
Rain since
9am
mm
Dir  Spd
km/h
Gust
km/h
Spd
kts
Gust
kts
06/11:30pm 19.5 19.9 16.2 81 2.0 ENE 9 11 5 6 1016.8 1016.2 0.0
06/11:00pm 20.0 20.4 16.2 79 2.3 E 9 13 5 7 1016.8 1016.2 0.0
06/10:30pm 20.2 20.3 16.4 79 2.3 ENE 11 13 6 7 1017.0 1016.4 0.0
06/10:00pm 19.8 19.9 15.4 76 2.6 ENE 9 11 5 6 1017.0 1016.4 0.0
06/09:30pm 20.2 19.7 15.0 72 3.1 ENE 11 13 6 7 1017.1 1016.5 0.0

Other formats

Comma delimited format used in spreadsheet applications
http://www.bom.gov.au/fwo/IDQ60801/IDQ60801.94398.axf

JavaScript Object Notation format (JSON) in row-major order
http://www.bom.gov.au/fwo/IDQ60801/IDQ60801.94398.json

Data quality

Most of these data are generated automatically and are frequently updated. Quality checks on data are not normally performed. It is possible for incorrect values to appear. Refer to information at About Latest Weather Observations and please check the disclaimer before using these data.